Rozšířené hledání} Informace o členství Kontaktní informace Seznam uživatelů Kalendář Spřátelené weby Honda-club.cz Přihlásit se k emailu
[1]
Linka Uživatelské skupiny Linka Galerie avatarů Linka Kdo je online Linka
Linka Jak se stát členem klubu Linka Stáhnout stanovy sdružení Linka Výhody pro členy klubu Linka
   Garáž -> Prohlížet
Přehled autNej autaSeznam autHledat autoPřehled servisůPřehled obchodůPřehled sprintůMěření výkonů

Jdi na stránku Předchozí  1, 2, 3 ... 15, 16, 17, 18  Další 
Třídění aut dle   V   
Foto Rok
 
Značka
 
Model
 
Barva
 
Majitel
 
Zhlédnuto
 
Modifikace
 
Aktualizováno
 
  1997 Honda Civic dark grey  mischa 2295 13 6.3.2010 , 11:27
  1998 Honda Accord Type-R červená  Geronimo 2564 0 27.2.2010 , 19:52
  1993 Honda Civic červená metla  Michalk 1748 5 27.2.2010 , 17:40
  2000 Honda Civic stříbrná  neyo 8910 10 25.2.2010 , 21:36
  2006 Honda Accord ČERNÁ  LEMMY1945 761 0 25.2.2010 , 12:20
  1995 Honda Civic VTEC cervena  theg 1043 0 24.2.2010 , 23:18
  1993 Honda CR-X DelSol elektric orange pearl  Petrdelsol 2940 6 24.2.2010 , 16:39
  1998 Honda CR-X DelSol černá met.  kany 1451 0 24.2.2010 , 0:36
  1991 Honda CR-X VTEC černá  Tomaaas 1766 0 23.2.2010 , 16:04
  2003 Honda Civic NIGHT HAWK BLACK PEARL  780622 1068 2 22.2.2010 , 21:18
  1987 Honda CR-X Bílá  Biturb 2691 0 21.2.2010 , 23:40
  2000 Honda Accord Type-R ta fialová co má být černá  kandik 1538 0 17.2.2010 , 19:50
  1995 Honda Prelude Black  RX 1042 0 17.2.2010 , 0:30
  1990 Honda CR-X Světle-modrá  Snekk 2873 3 16.2.2010 , 20:29
  1991 Honda CR-X šedá  sivek 4446 28 16.2.2010 , 18:42
  1996 Honda Civic red  2Patrik2 751 0 15.2.2010 , 19:27
  1993 Honda CR-X DelSol oranzova perlet  mari 1 3676 6 15.2.2010 , 0:36
  1995 Honda Civic zelená perleť  Stani 1781 0 12.2.2010 , 19:22
  1997 Honda Civic červená  Stani 1168 0 12.2.2010 , 19:21
  1991 Honda CR-X šedá metal  Stani 2479 7 12.2.2010 , 19:14
  1994 Honda Civic Coupe černa  BLACK HAWK 875 1 12.2.2010 , 12:11
  2002 Honda Civic Type-R stříbrná  area07 7071 2 11.2.2010 , 23:01
  1998 Honda Civic EK4 černa  miramax 3300 0 11.2.2010 , 10:43
  1991 Honda Civic Šedivá  Ginda 3165 0 10.2.2010 , 22:28
  1990 Honda Civic šedá pastel  HonDan 5622 16 9.2.2010 , 20:17
  1991 Honda Prelude   Hondatras 887 0 8.2.2010 , 19:32
  1988 Honda CR-X červená  Sheney 576 0 8.2.2010 , 11:18
  2007 Honda Accord tm.modrá met.  jimih 2524 0 7.2.2010 , 11:08
  1996 Honda Civic Stribrna  miki85 2271 0 4.2.2010 , 11:57
  2002 Honda CR-V   Civinka 1120 0 4.2.2010 , 9:22
  2003 Honda Civic Sport cerna s modrou perleti  LUTEC 3055 5 4.2.2010 , 8:00
  1992 Honda Civic Černá  Crusty 1796 3 3.2.2010 , 15:46
  1995 Honda Civic Coupe černá  evžen 1242 1 2.2.2010 , 19:04
  1998 Honda Civic EK4 bílá  rake-motors 1437 0 30.1.2010 , 12:35
  1991 Honda CR-X černá metalíza  chosse.j 2189 15 26.1.2010 , 23:33
  1997 Honda Civic Vti Modrá  Matias 2606 1 26.1.2010 , 10:36
  1991 Honda CR-X VTEC zelena  Zdeny-honda 2935 0 26.1.2010 , 7:50
  1998 Honda Accord vínová  Kubelik 742 0 25.1.2010 , 18:42
  1997 Honda Civic VTEC tmavě fialová  whiteorb 1164 0 23.1.2010 , 19:05
  1999 Honda Accord Type-R Bílá  David Marvan 2574 0 20.1.2010 , 18:07
  1997 Honda Civic Pirates Black Pearl  damim 551 0 19.1.2010 , 22:10
  1993 Honda Prelude Červená  Mystic 2319 0 19.1.2010 , 19:41
  2000 Honda S2000 Berlina Black  Havo 4308 1 16.1.2010 , 12:11
  2001 Honda S2000 stribrna  DaM 4559 0 16.1.2010 , 10:12
  1994 Honda Civic Vti červená r-81  Roverman 9404 3 16.1.2010 , 8:06
  2000 Honda HR-V Stříbrná metalíza  Puzzlehead 770 0 16.1.2010 , 1:06
  1992 Honda Civic červená  CZento 7225 32 15.1.2010 , 23:07
  1997 Honda Prelude modrá  R6D3K 2441 6 13.1.2010 , 23:04
  1994 Honda Civic červená  mti 1021 0 13.1.2010 , 8:49
  1986 Honda CR-X Modra  billCRX1G 1763 0 11.1.2010 , 20:50
  1996 Honda Civic Coupe Milano Red  MEJV 1342 0 11.1.2010 , 10:09
  1992 Honda CR-X červená  jaykob 2681 3 9.1.2010 , 9:46
  2006 Honda Civic modra  lukas2122 672 0 9.1.2010 , 7:50
  1990 Honda CR-X červena  juturn 1823 0 8.1.2010 , 16:58
  1991 Honda CR-X stribrna  mike102 702 0 7.1.2010 , 18:15
  1987 Honda CR-X Černa  retrodado 1778 0 6.1.2010 , 12:25
  1995 Honda Civic zlatá metalíza  Tom.Bryan 2546 0 5.1.2010 , 21:28
  1996 Honda CR-X DelSol červená  Zipík 1099 0 5.1.2010 , 19:14
  1998 Honda Civic Aerodeck šedá metaliza  melman 2576 0 5.1.2010 , 17:17
  2008 Honda Civic Type-R Bila  trackwhore 5042 1 5.1.2010 , 6:03
  1995 Honda CR-X DelSol černá  tomekcrx 1612 0 2.1.2010 , 20:06
  1989 Honda Accord Aerodeck stříbrná  Ajsik 2683 0 29.12.2009 , 0:08
  1992 Honda Civic modrá metla  Pick-Creek 1918 3 27.12.2009 , 18:56
  1994 Honda CR-X DelSol cervena  swer 1773 0 24.12.2009 , 22:48
  1988 Honda Prelude červená  Ondra 1013 1 24.12.2009 , 21:20
  1997 Honda Prelude VTEC cypres green pearl  odos 4073 0 24.12.2009 , 19:03
  1999 Honda Civic VTEC sicilian red pearl  Marty86 642 0 24.12.2009 , 15:44
  1992 Honda Civic Modrá metalíza  Alweron 1490 1 23.12.2009 , 18:36
  1992 Honda Civic origo červená metalíza  Whistler 1560 0 21.12.2009 , 21:47
  1993 Honda Civic Vti   barel 2918 1 21.12.2009 , 21:28
  1992 Honda Civic červená + bílé pruhy  Tinka 2131 0 17.12.2009 , 14:09
  1998 Honda Prelude S Harley Davidson Grey  TomasVti 2288 0 9.12.2009 , 15:47
  1998 Honda Integra Type-R Championship white  sedrik 2810 0 7.12.2009 , 12:35
  2009 Honda Civic černá  danok 1575 0 27.11.2009 , 19:24
  1996 Honda Civic zelená metal  jelinek79 1706 7 27.11.2009 , 16:11
  1991 Honda CR-X střibrna metla  Jamalek 729 0 23.11.2009 , 22:20
  1997 Honda Accord Coupe Bílá  Vash the Accord 2451 0 22.11.2009 , 1:56
  1991 Honda CR-X Šedá  michhi 2642 1 20.11.2009 , 11:38
  2004 Honda Accord šedá metalíza  Timberland 1992 0 18.11.2009 , 20:12
  1995 Honda Civic zel.met  HondákTom 1139 0 16.11.2009 , 10:35
  1995 Honda Civic Coupe černá  coodl 5426 6 14.11.2009 , 13:57
  1989 Honda Civic červená  Ernst.p 1578 0 12.11.2009 , 12:12
  1997 Honda Civic EK4   luke skunkwalker2 995 0 11.11.2009 , 14:46
  1999 Honda Accord stříbrná metalíza  Algol 1697 0 10.11.2009 , 23:15
  1994 Honda Civic Modrá  speedy5 927 0 8.11.2009 , 17:14
  1997 Honda Civic cervena  martin urban 633 0 6.11.2009 , 16:31
  1993 Honda Civic VTEC Vínová  scoby 1566 2 3.11.2009 , 18:46
  1997 Honda Civic Bordova  marko3 1595 0 1.11.2009 , 19:32
  1999 Honda Civic VTEC SuperSonic Blue Pearl  Jarys 4640 13 30.10.2009 , 20:49
  1991 Honda Civic VT černá  Bouky 2877 0 30.10.2009 , 14:00
  1990 Honda CR-X červená  OzzmanCRX 1682 0 30.10.2009 , 0:48
  1990 Rover 200 GSi vínová  Hrošík 3977 17 27.10.2009 , 19:17
  2000 Honda Prelude Stříbrná  Picbill 1092 0 24.10.2009 , 6:54
  1997 Honda Accord Black Type A  Jendis 738 0 23.10.2009 , 5:41
  1995 Honda Civic Orange lambo  AirEddie 2771 1 21.10.2009 , 7:01
  1999 Honda Accord Type-R Milano red  Pauli 6845 35 17.10.2009 , 18:11
  1991 Honda CR-X červená  MattiK 9069 0 17.10.2009 , 8:30
  1999 Honda Accord Type-R bílá  Petrvti 3841 0 15.10.2009 , 9:26
  1997 Honda Accord Coupe Zelená metalíza  1750 0 11.10.2009 , 18:40
  1997 Honda Accord šedá světlá (nebo spíš stříbrná tmavá)  caras 2456 4 11.10.2009 , 15:19
  1997 Honda Civic   truest 1923 1 6.10.2009 , 16:37
  1992 Honda Civic Černá  tima.j 1887 8 5.10.2009 , 14:49
  1997 Honda Civic Červená  Monina 592 0 2.10.2009 , 13:13
  1998 Honda Prelude VTEC černá metalíza  Y@rin 1678 0 25.9.2009 , 13:38
  1995 Honda Accord divoce zelená  SNAKEJEHAD 760 1 24.9.2009 , 9:03
  2003 Honda Stream grey metalic  Sporťák 2779 0 23.9.2009 , 15:04
  1995 Honda Civic Coupe Vínová metal.  Meda 10522 17 21.9.2009 , 11:01
  1994 Honda Prelude VTEC červena  Jarda-SannyCars 4393 0 20.9.2009 , 20:09
  1994 Honda Civic Coupe Modro-zelená metal.  Sťju 2396 1 19.9.2009 , 20:03
  1998 Honda Civic Vti cervena  bullagi 1650 0 19.9.2009 , 10:27
  1991 Honda CR-X Cerveno-bila Mugen  Jerry_J 2688 0 18.9.2009 , 19:34
  1998 Honda Civic modrá  Nemda 1509 0 17.9.2009 , 14:31
  1995 Honda Civic Coupe stříbrná  Maca.022 842 7 16.9.2009 , 22:13
  1993 Honda Civic Vínová  Audys19 1268 0 10.9.2009 , 11:55
  1997 Honda Prelude červená  vachicek 4345 5 8.9.2009 , 12:45
  2000 Honda Civic Tmavě zelená (Baikal green pearl)  Ivoss 4921 25 7.9.2009 , 16:58
  1995 Honda CR-X DelSol žlutá  Heelen 2187 0 7.9.2009 , 8:57
  1995 Honda Civic zatim oranzova  Prelude3g 1076 0 25.8.2009 , 21:15
  1996 Honda Accord Modrá metalíza  Tomášek 4270 2 23.8.2009 , 12:53
  2003 Honda Civic Sport Satin Silver Metallic  TomiQ 4797 8 19.8.2009 , 19:27
  1997 Honda CR-X DelSol červená  Favi 1803 1 18.8.2009 , 19:24
  1995 Honda Accord udajne seda-metal :-D  Ptak 1697 0 8.8.2009 , 23:36
  1999 Honda Integra Type-R Championship white  Caltiger 5852 5 4.8.2009 , 12:30
  1991 Honda CR-X červená  Ramik 1916 0 4.8.2009 , 8:59
  1993 Honda Civic   jimb 776 0 3.8.2009 , 7:12
  1992 Honda Civic Červená  Riči 1488 0 2.8.2009 , 18:05
  2000 Honda Accord stribrna+cerna  Dave23 790 0 2.8.2009 , 16:51
  1995 Honda Accord LÁHVOVĚZELENÁ METLA  Hanz 4136 0 1.8.2009 , 20:24
  1993 Honda Civic Stříbrná  civa93 2064 3 30.7.2009 , 12:40
  1997 Honda Civic Vti pirates black pearl  LukiS 3373 24 29.7.2009 , 18:32
  1992 Honda CR-X DelSol Červená  Thomaz 1798 4 29.7.2009 , 9:46
  1992 Honda Concerto CERVENA  DARUDE2000 1165 0 28.7.2009 , 4:42
  1998 Honda Civic modra tmava  ignac 3767 22 27.7.2009 , 16:23
  2009 Honda Jazz fialová tmavá perleťová  PHonzejk 1563 0 26.7.2009 , 19:37
  1993 Honda Civic černá  vtivti 2951 0 25.7.2009 , 12:13
  2006 Honda S2000 Silverstone  mikys2000 2951 7 21.7.2009 , 19:06
  1984 Honda CR-X červená  gizmi 3190 11 19.7.2009 , 20:13
  2007 Honda Civic Sport černá  Keyplus 986 0 18.7.2009 , 11:57
  1991 Honda Civic modroseda metaliza  marty89 2643 11 15.7.2009 , 18:31
  2000 Honda Accord Type-R black pearl pirate  pani esova 1957 9 14.7.2009 , 9:13
  1999 Honda Accord základní červená  menor 3149 0 13.7.2009 , 15:40
  1988 Honda Civic červená  Wu-T.A. 1716 0 12.7.2009 , 22:47
  1987 Honda Accord Aerodeck zlata-metal-cerna-matna  arny 2301 0 12.7.2009 , 18:34
  1988 Honda CR-X Stribrna metal  Marphy 2605 0 11.7.2009 , 12:50
  1991 Honda Civic R68  Lord British 1710 0 10.7.2009 , 23:34
  1990 Honda CR-X black  ne-moc 2776 0 8.7.2009 , 22:31
  1994 Honda Civic Coupe černá  juta 864 0 5.7.2009 , 22:45
  1987 Honda Civic GT černá  Minor 3396 0 5.7.2009 , 21:57
  1991 Honda CR-X VTEC v budoucnu šedá metla  Minor 4540 0 5.7.2009 , 21:19
  2004 Honda Civic Cool Jade Silver G517M-světle zelená metla  Leke 9559 0 4.7.2009 , 17:52
  1996 Honda Civic VTEC Červená  hawk14 939 0 29.6.2009 , 20:45
  1995 Honda Civic Modrozelená metalíza  Kentán 2151 17 29.6.2009 , 18:07
  1995 Honda Prelude Vínová červena  max-cz 2398 0 29.6.2009 , 16:45
  2002 Honda Civic Stribrna  CJMonty 6708 0 29.6.2009 , 12:31
  1993 Honda Civic Černá  Klobrcík 3325 15 25.6.2009 , 10:38
  1989 Honda CR-X čierna  Filier 1853 0 22.6.2009 , 15:36
  1998 Honda Civic Aerodeck strieborná metalíza  Ing.Dziwy 1610 0 20.6.2009 , 13:45
  1996 Honda Prelude black pearl  cyborg 4340 15 18.6.2009 , 15:28
  1994 Honda Prelude modrozelená metalíza  Maty 3588 9 17.6.2009 , 21:43
  1987 Honda CR-X fialovocerna  Edik. 932 0 16.6.2009 , 12:56
  1997 Honda Civic THAITIANGREENPEARL  paralen plus 1462 0 15.6.2009 , 22:24
  1994 Honda Civic bílá  ka8ooi 4723 3 14.6.2009 , 22:57
  2001 Honda Accord Amazónská zeleň  DrTc 2514 1 14.6.2009 , 20:40
  1989 Honda Accord Aerodeck bílá  Tomáš Zeiner 978 0 11.6.2009 , 11:35
  1992 Honda Civic stříbrná  Zelo 1535 0 7.6.2009 , 8:37
  1999 Honda Accord modrá  dydzej 2595 3 5.6.2009 , 7:07
  1991 Honda Civic Shuttle červená metla  Tharrrk 1429 0 3.6.2009 , 18:31
  1995 Honda Civic Červená  xxvenaxx 1521 0 2.6.2009 , 8:40
  1990 Honda CR-X černá perlet  cala 823 0 1.6.2009 , 20:13
  1995 Honda Civic Coupe cierna so striebornou perletou  Rodom 3035 0 31.5.2009 , 12:44
  2003 Honda Civic Type-R Night Hawk  Milan CTR 6979 5 31.5.2009 , 9:56
  1997 Honda Prelude VTEC červená  Jelda 2085 0 28.5.2009 , 14:31
  1990 Honda Civic černá  Madyk 1855 9 27.5.2009 , 16:19
  1997 Honda Civic VTEC Černá metalíza  wejmi 1920 0 26.5.2009 , 19:17
  1997 Honda Civic Vti Sicilian red pearl  boleq 1475 0 22.5.2009 , 15:00
  1989 Honda Civic Real Time 4WD Šedá  SpideX 2496 0 19.5.2009 , 0:42
  1991 Honda CR-X čierna  Trso 2324 0 18.5.2009 , 19:17
  1997 Honda Civic Coupe černá  Horďa-Black 4370 9 16.5.2009 , 16:55
  1995 Honda Civic Bielo-Čierna  s8n 1577 0 15.5.2009 , 11:18
  1993 Honda Civic Vti zelená metalíza  shallowhal 3043 0 13.5.2009 , 13:12
  1999 Honda Accord Titan Silver  RuKa 798 0 13.5.2009 , 12:49
  1993 Honda Civic Vínová  Lukys 1872 0 12.5.2009 , 22:54
  1993 Honda CR-X DelSol modrá metalíza  gazin 1521 0 12.5.2009 , 8:49
  1996 Honda Accord Tmavě-červená metaliza  Klemoš 2648 6 11.5.2009 , 19:24
  1990 Honda CR-X Červená  Hondička 2090 0 11.5.2009 , 13:44
  1985 Honda CR-X černá  PepaCR5446 7380 0 10.5.2009 , 21:25
  1993 Honda Civic vinove cervena  Miro 1173 0 10.5.2009 , 14:30
  1991 Honda Accord Aerodeck zelená  dan7970 1912 0 8.5.2009 , 22:42
  1994 Honda Civic VTEC Bílá  Kong 717 0 8.5.2009 , 11:51
  1991 Honda Accord Tmave sediva metaliza  Wizeon 1812 0 3.5.2009 , 21:35
  1996 Honda Civic červeno černá  Sopy 1691 1 3.5.2009 , 20:10
  1994 Honda Civic VTEC čena a modra metaliza  radasss 1976 0 2.5.2009 , 22:13
  1997 Honda Civic střibrná  aztecc 1425 0 2.5.2009 , 21:18
  1997 Honda Civic stříbrná  Jurais 2201 0 2.5.2009 , 6:08
  1998 Honda CR-V černá  HkingH 1715 0 1.5.2009 , 10:26
  1997 Honda Accord orleans blue pearl(tmavě modrá met)  TJimmy 976 0 27.4.2009 , 21:52
  2002 Honda Stream bílá  marab 7467 0 27.4.2009 , 9:48
  1994 Honda Civic Červeno-černá  Mardoc 4251 10 25.4.2009 , 11:30
  1997 Honda Civic Type-R Tm.modrá metalíza  karel 3242 1 25.4.2009 , 6:35
  2008 Honda Civic černá  MIML's 1758 0 24.4.2009 , 10:07
Jdi na stránku Předchozí  1, 2, 3 ... 15, 16, 17, 18  Další 
Třídění aut dle   V   



Board Security

(97773 útoků)
::  www.honda-club.cz  :: poslední témata RSS TOPlist

[ Čas: 0.5074s ][ Dotazy: 25 (0.4174s) ][ GZIP on - Debug on ]